sensor_id;sensor_type;location;lat;lon;timestamp;pressure;altitude;pressure_sealevel;temperature;humidity
15272;BME280;7737;51.578;7.268;2023-03-01T00:00:39;102612.53;;;-1.59;100.00
15272;BME280;7737;51.578;7.268;2023-03-01T00:03:06;102609.91;;;-1.59;100.00
15272;BME280;7737;51.578;7.268;2023-03-01T00:05:32;102606.34;;;-1.62;100.00
15272;BME280;7737;51.578;7.268;2023-03-01T00:07:59;102610.34;;;-1.73;100.00
15272;BME280;7737;51.578;7.268;2023-03-01T00:10:25;102609.06;;;-1.59;100.00
15272;BME280;7737;51.578;7.268;2023-03-01T00:12:53;102595.34;;;-1.52;100.00
15272;BME280;7737;51.578;7.268;2023-03-01T00:15:21;102597.84;;;-1.57;100.00
15272;BME280;7737;51.578;7.268;2023-03-01T00:17:48;102605.09;;;-1.47;100.00
15272;BME280;7737;51.578;7.268;2023-03-01T00:20:14;102598.72;;;-1.56;100.00
15272;BME280;7737;51.578;7.268;2023-03-01T00:22:40;102602.75;;;-1.66;100.00
15272;BME280;7737;51.578;7.268;2023-03-01T00:25:07;102600.84;;;-1.71;100.00
15272;BME280;7737;51.578;7.268;2023-03-01T00:27:34;102598.44;;;-1.65;100.00
15272;BME280;7737;51.578;7.268;2023-03-01T00:30:02;102598.53;;;-1.62;100.00
15272;BME280;7737;51.578;7.268;2023-03-01T00:32:29;102599.44;;;-1.62;100.00
15272;BME280;7737;51.578;7.268;2023-03-01T00:34:55;102598.34;;;-1.68;100.00
15272;BME280;7737;51.578;7.268;2023-03-01T00:37:22;102592.00;;;-1.76;100.00
15272;BME280;7737;51.578;7.268;2023-03-01T00:39:49;102590.00;;;-1.85;100.00
15272;BME280;7737;51.578;7.268;2023-03-01T00:42:16;102593.41;;;-1.88;100.00
15272;BME280;7737;51.578;7.268;2023-03-01T00:44:43;102584.91;;;-2.09;100.00
15272;BME280;7737;51.578;7.268;2023-03-01T00:47:11;102582.75;;;-1.95;100.00
15272;BME280;7737;51.578;7.268;2023-03-01T00:49:37;102586.22;;;-2.23;100.00
15272;BME280;7737;51.578;7.268;2023-03-01T00:52:04;102586.34;;;-2.18;100.00
15272;BME280;7737;51.578;7.268;2023-03-01T00:54:31;102588.63;;;-2.01;100.00
15272;BME280;7737;51.578;7.268;2023-03-01T00:56:57;102568.00;;;-1.95;100.00
15272;BME280;7737;51.578;7.268;2023-03-01T00:59:24;102579.91;;;-2.03;100.00
15272;BME280;7737;51.578;7.268;2023-03-01T01:01:50;102580.13;;;-2.22;100.00
15272;BME280;7737;51.578;7.268;2023-03-01T01:04:18;102580.78;;;-2.29;100.00
15272;BME280;7737;51.578;7.268;2023-03-01T01:06:46;102573.81;;;-2.30;100.00
15272;BME280;7737;51.578;7.268;2023-03-01T01:09:14;102577.53;;;-2.22;100.00
15272;BME280;7737;51.578;7.268;2023-03-01T01:11:43;102576.81;;;-2.18;100.00
15272;BME280;7737;51.578;7.268;2023-03-01T01:14:10;102568.59;;;-2.30;100.00
15272;BME280;7737;51.578;7.268;2023-03-01T01:16:36;102573.91;;;-2.27;100.00
15272;BME280;7737;51.578;7.268;2023-03-01T01:19:03;102564.59;;;-2.46;100.00
15272;BME280;7737;51.578;7.268;2023-03-01T01:21:31;102556.00;;;-2.43;100.00
15272;BME280;7737;51.578;7.268;2023-03-01T01:23:58;102553.63;;;-2.37;100.00
15272;BME280;7737;51.578;7.268;2023-03-01T01:26:26;102557.78;;;-2.42;100.00
15272;BME280;7737;51.578;7.268;2023-03-01T01:28:53;102553.47;;;-2.41;100.00
15272;BME280;7737;51.578;7.268;2023-03-01T01:31:20;102560.59;;;-2.63;100.00
15272;BME280;7737;51.578;7.268;2023-03-01T01:33:48;102550.63;;;-2.49;100.00
15272;BME280;7737;51.578;7.268;2023-03-01T01:36:16;102557.38;;;-2.54;100.00
15272;BME280;7737;51.578;7.268;2023-03-01T01:38:44;102564.06;;;-2.62;100.00
15272;BME280;7737;51.578;7.268;2023-03-01T01:41:12;102553.84;;;-2.56;100.00
15272;BME280;7737;51.578;7.268;2023-03-01T01:43:39;102553.38;;;-2.44;100.00
15272;BME280;7737;51.578;7.268;2023-03-01T01:46:15;102556.19;;;-2.64;100.00
15272;BME280;7737;51.578;7.268;2023-03-01T01:48:47;102561.38;;;-2.65;100.00
15272;BME280;7737;51.578;7.268;2023-03-01T01:51:19;102555.75;;;-2.51;100.00
15272;BME280;7737;51.578;7.268;2023-03-01T01:53:52;102546.69;;;-2.63;100.00
15272;BME280;7737;51.578;7.268;2023-03-01T01:56:19;102553.47;;;-2.67;100.00
15272;BME280;7737;51.578;7.268;2023-03-01T01:58:48;102550.88;;;-2.67;100.00
15272;BME280;7737;51.578;7.268;2023-03-01T02:01:15;102535.28;;;-2.67;100.00
15272;BME280;7737;51.578;7.268;2023-03-01T02:03:42;102532.19;;;-2.55;100.00
15272;BME280;7737;51.578;7.268;2023-03-01T02:06:15;102525.56;;;-2.46;100.00
15272;BME280;7737;51.578;7.268;2023-03-01T02:08:47;102524.28;;;-2.58;100.00
15272;BME280;7737;51.578;7.268;2023-03-01T02:11:16;102526.84;;;-2.60;100.00
15272;BME280;7737;51.578;7.268;2023-03-01T02:13:44;102529.97;;;-2.43;100.00
15272;BME280;7737;51.578;7.268;2023-03-01T02:16:14;102525.09;;;-2.59;100.00
15272;BME280;7737;51.578;7.268;2023-03-01T02:18:42;102519.41;;;-2.74;100.00
15272;BME280;7737;51.578;7.268;2023-03-01T02:21:17;102518.19;;;-2.59;100.00
15272;BME280;7737;51.578;7.268;2023-03-01T02:23:49;102514.91;;;-2.53;100.00
15272;BME280;7737;51.578;7.268;2023-03-01T02:26:20;102510.34;;;-2.60;100.00
15272;BME280;7737;51.578;7.268;2023-03-01T02:28:51;102507.88;;;-2.56;100.00
15272;BME280;7737;51.578;7.268;2023-03-01T02:31:19;102509.59;;;-2.56;100.00
15272;BME280;7737;51.578;7.268;2023-03-01T02:34:05;102520.44;;;-2.69;100.00
15272;BME280;7737;51.578;7.268;2023-03-01T02:36:36;102531.38;;;-3.04;100.00
15272;BME280;7737;51.578;7.268;2023-03-01T02:39:05;102534.06;;;-3.27;100.00
15272;BME280;7737;51.578;7.268;2023-03-01T02:41:35;102530.94;;;-3.17;100.00
15272;BME280;7737;51.578;7.268;2023-03-01T02:44:05;102522.84;;;-3.00;100.00
15272;BME280;7737;51.578;7.268;2023-03-01T02:46:31;102534.59;;;-3.12;100.00
15272;BME280;7737;51.578;7.268;2023-03-01T02:48:58;102531.56;;;-3.24;100.00
15272;BME280;7737;51.578;7.268;2023-03-01T02:51:42;102520.22;;;-3.02;100.00
15272;BME280;7737;51.578;7.268;2023-03-01T02:54:17;102539.91;;;-3.09;100.00
15272;BME280;7737;51.578;7.268;2023-03-01T02:56:47;102527.03;;;-3.04;100.00
15272;BME280;7737;51.578;7.268;2023-03-01T02:59:18;102532.69;;;-2.92;100.00
15272;BME280;7737;51.578;7.268;2023-03-01T03:01:45;102537.16;;;-3.13;100.00
15272;BME280;7737;51.578;7.268;2023-03-01T03:04:14;102536.03;;;-3.20;100.00
15272;BME280;7737;51.578;7.268;2023-03-01T03:06:42;102531.16;;;-3.11;100.00
15272;BME280;7737;51.578;7.268;2023-03-01T03:09:09;102520.63;;;-3.15;100.00
15272;BME280;7737;51.578;7.268;2023-03-01T03:11:35;102524.19;;;-3.12;100.00
15272;BME280;7737;51.578;7.268;2023-03-01T03:14:05;102523.09;;;-3.18;100.00
15272;BME280;7737;51.578;7.268;2023-03-01T03:16:39;102521.06;;;-3.01;100.00
15272;BME280;7737;51.578;7.268;2023-03-01T03:19:06;102522.44;;;-3.13;100.00
15272;BME280;7737;51.578;7.268;2023-03-01T03:21:32;102520.66;;;-3.14;100.00
15272;BME280;7737;51.578;7.268;2023-03-01T03:24:00;102525.44;;;-3.26;100.00
15272;BME280;7737;51.578;7.268;2023-03-01T03:26:27;102521.34;;;-3.43;100.00
15272;BME280;7737;51.578;7.268;2023-03-01T03:28:54;102525.31;;;-3.29;100.00
15272;BME280;7737;51.578;7.268;2023-03-01T03:31:20;102517.19;;;-3.38;100.00
15272;BME280;7737;51.578;7.268;2023-03-01T03:33:48;102519.09;;;-3.34;100.00
15272;BME280;7737;51.578;7.268;2023-03-01T03:36:16;102518.34;;;-3.30;100.00
15272;BME280;7737;51.578;7.268;2023-03-01T03:38:43;102520.25;;;-3.26;100.00
15272;BME280;7737;51.578;7.268;2023-03-01T03:41:09;102510.00;;;-3.45;100.00
15272;BME280;7737;51.578;7.268;2023-03-01T03:43:38;102503.81;;;-3.48;100.00
15272;BME280;7737;51.578;7.268;2023-03-01T03:46:06;102496.78;;;-3.51;100.00
15272;BME280;7737;51.578;7.268;2023-03-01T03:48:33;102493.00;;;-3.35;100.00
15272;BME280;7737;51.578;7.268;2023-03-01T03:51:01;102493.13;;;-3.32;100.00
15272;BME280;7737;51.578;7.268;2023-03-01T03:53:30;102496.91;;;-3.48;100.00
15272;BME280;7737;51.578;7.268;2023-03-01T03:55:57;102496.91;;;-3.48;100.00
15272;BME280;7737;51.578;7.268;2023-03-01T03:58:25;102482.63;;;-3.59;100.00
15272;BME280;7737;51.578;7.268;2023-03-01T04:00:54;102487.13;;;-3.55;100.00
15272;BME280;7737;51.578;7.268;2023-03-01T04:03:23;102490.91;;;-3.69;100.00
15272;BME280;7737;51.578;7.268;2023-03-01T04:05:50;102480.53;;;-3.69;100.00
15272;BME280;7737;51.578;7.268;2023-03-01T04:08:18;102488.16;;;-3.74;100.00
15272;BME280;7737;51.578;7.268;2023-03-01T04:10:48;102483.75;;;-3.76;100.00
15272;BME280;7737;51.578;7.268;2023-03-01T04:13:17;102487.28;;;-3.74;100.00
15272;BME280;7737;51.578;7.268;2023-03-01T04:15:44;102494.94;;;-3.77;100.00
15272;BME280;7737;51.578;7.268;2023-03-01T04:18:12;102493.25;;;-3.53;100.00
15272;BME280;7737;51.578;7.268;2023-03-01T04:20:39;102486.03;;;-3.60;100.00
15272;BME280;7737;51.578;7.268;2023-03-01T04:23:07;102482.75;;;-3.56;100.00
15272;BME280;7737;51.578;7.268;2023-03-01T04:25:41;102486.94;;;-3.59;100.00
15272;BME280;7737;51.578;7.268;2023-03-01T04:28:09;102490.03;;;-3.46;100.00
15272;BME280;7737;51.578;7.268;2023-03-01T04:30:36;102487.72;;;-3.62;100.00
15272;BME280;7737;51.578;7.268;2023-03-01T04:33:04;102486.38;;;-3.51;100.00
15272;BME280;7737;51.578;7.268;2023-03-01T04:35:30;102488.06;;;-3.53;100.00
15272;BME280;7737;51.578;7.268;2023-03-01T04:37:57;102493.09;;;-3.57;100.00
15272;BME280;7737;51.578;7.268;2023-03-01T04:40:24;102480.56;;;-3.44;100.00
15272;BME280;7737;51.578;7.268;2023-03-01T04:42:52;102480.00;;;-3.35;100.00
15272;BME280;7737;51.578;7.268;2023-03-01T04:45:19;102477.78;;;-3.50;100.00
15272;BME280;7737;51.578;7.268;2023-03-01T04:47:46;102476.22;;;-3.45;100.00
15272;BME280;7737;51.578;7.268;2023-03-01T04:50:14;102478.41;;;-3.32;100.00
15272;BME280;7737;51.578;7.268;2023-03-01T04:52:42;102472.06;;;-3.40;100.00
15272;BME280;7737;51.578;7.268;2023-03-01T04:55:09;102476.31;;;-3.42;100.00
15272;BME280;7737;51.578;7.268;2023-03-01T04:57:36;102478.75;;;-3.46;100.00
15272;BME280;7737;51.578;7.268;2023-03-01T05:00:06;102480.75;;;-3.63;100.00
15272;BME280;7737;51.578;7.268;2023-03-01T05:02:46;102472.50;;;-3.75;100.00
15272;BME280;7737;51.578;7.268;2023-03-01T05:05:13;102472.84;;;-3.66;100.00
15272;BME280;7737;51.578;7.268;2023-03-01T05:07:40;102474.31;;;-3.49;100.00
15272;BME280;7737;51.578;7.268;2023-03-01T05:10:07;102470.38;;;-3.63;100.00
15272;BME280;7737;51.578;7.268;2023-03-01T05:12:34;102471.03;;;-3.45;100.00
15272;BME280;7737;51.578;7.268;2023-03-01T05:15:04;102468.31;;;-3.48;100.00
15272;BME280;7737;51.578;7.268;2023-03-01T05:17:32;102467.53;;;-3.45;100.00
15272;BME280;7737;51.578;7.268;2023-03-01T05:19:59;102471.53;;;-3.55;100.00
15272;BME280;7737;51.578;7.268;2023-03-01T05:22:26;102472.66;;;-3.71;100.00
15272;BME280;7737;51.578;7.268;2023-03-01T05:24:52;102470.25;;;-3.66;100.00
15272;BME280;7737;51.578;7.268;2023-03-01T05:27:20;102472.66;;;-3.71;100.00
15272;BME280;7737;51.578;7.268;2023-03-01T05:29:47;102467.03;;;-3.59;100.00
15272;BME280;7737;51.578;7.268;2023-03-01T05:32:15;102466.91;;;-3.62;100.00
15272;BME280;7737;51.578;7.268;2023-03-01T05:34:42;102478.19;;;-3.85;100.00
15272;BME280;7737;51.578;7.268;2023-03-01T05:37:11;102462.63;;;-3.85;100.00
15272;BME280;7737;51.578;7.268;2023-03-01T05:39:38;102453.28;;;-3.80;100.00
15272;BME280;7737;51.578;7.268;2023-03-01T05:42:10;102463.41;;;-3.64;100.00
15272;BME280;7737;51.578;7.268;2023-03-01T05:44:36;102469.13;;;-3.73;100.00
15272;BME280;7737;51.578;7.268;2023-03-01T05:47:03;102463.16;;;-3.70;100.00
15272;BME280;7737;51.578;7.268;2023-03-01T05:49:31;102464.81;;;-3.72;100.00
15272;BME280;7737;51.578;7.268;2023-03-01T05:51:58;102466.59;;;-3.71;100.00
15272;BME280;7737;51.578;7.268;2023-03-01T05:54:24;102456.75;;;-3.80;100.00
15272;BME280;7737;51.578;7.268;2023-03-01T05:56:51;102464.41;;;-3.84;100.00
15272;BME280;7737;51.578;7.268;2023-03-01T05:59:17;102468.31;;;-3.95;100.00
15272;BME280;7737;51.578;7.268;2023-03-01T06:01:44;102466.59;;;-3.71;100.00
15272;BME280;7737;51.578;7.268;2023-03-01T06:04:11;102459.84;;;-3.66;100.00
15272;BME280;7737;51.578;7.268;2023-03-01T06:06:39;102453.81;;;-3.65;100.00
15272;BME280;7737;51.578;7.268;2023-03-01T06:09:05;102453.94;;;-3.62;100.00
15272;BME280;7737;51.578;7.268;2023-03-01T06:11:34;102452.06;;;-3.66;100.00
15272;BME280;7737;51.578;7.268;2023-03-01T06:14:02;102447.56;;;-3.70;100.00
15272;BME280;7737;51.578;7.268;2023-03-01T06:16:28;102457.41;;;-3.85;100.00
15272;BME280;7737;51.578;7.268;2023-03-01T06:18:55;102446.09;;;-3.87;100.00
15272;BME280;7737;51.578;7.268;2023-03-01T06:21:21;102450.66;;;-3.80;100.00
15272;BME280;7737;51.578;7.268;2023-03-01T06:23:49;102453.25;;;-4.04;100.00
15272;BME280;7737;51.578;7.268;2023-03-01T06:26:17;102447.03;;;-3.85;100.00
15272;BME280;7737;51.578;7.268;2023-03-01T06:28:43;102449.13;;;-3.75;100.00
15272;BME280;7737;51.578;7.268;2023-03-01T06:31:11;102450.06;;;-3.73;100.00
15272;BME280;7737;51.578;7.268;2023-03-01T06:33:38;102444.97;;;-3.70;100.00
15272;BME280;7737;51.578;7.268;2023-03-01T06:36:05;102443.34;;;-3.68;100.00
15272;BME280;7737;51.578;7.268;2023-03-01T06:38:32;102449.00;;;-3.78;100.00
15272;BME280;7737;51.578;7.268;2023-03-01T06:40:59;102451.09;;;-3.92;100.00
15272;BME280;7737;51.578;7.268;2023-03-01T06:43:27;102457.00;;;-3.74;100.00
15272;BME280;7737;51.578;7.268;2023-03-01T06:45:53;102452.66;;;-3.73;100.00
15272;BME280;7737;51.578;7.268;2023-03-01T06:48:20;102456.75;;;-3.80;100.00
15272;BME280;7737;51.578;7.268;2023-03-01T06:50:46;102450.06;;;-3.73;100.00
15272;BME280;7737;51.578;7.268;2023-03-01T06:53:13;102453.16;;;-3.59;100.00
15272;BME280;7737;51.578;7.268;2023-03-01T06:55:39;102451.78;;;-3.50;100.00
15272;BME280;7737;51.578;7.268;2023-03-01T06:58:08;102451.91;;;-3.47;100.00
15272;BME280;7737;51.578;7.268;2023-03-01T07:00:35;102450.41;;;-3.39;100.00
15272;BME280;7737;51.578;7.268;2023-03-01T07:03:02;102450.25;;;-3.92;100.00
15272;BME280;7737;51.578;7.268;2023-03-01T07:05:29;102444.47;;;-3.84;100.00
15272;BME280;7737;51.578;7.268;2023-03-01T07:07:56;102448.16;;;-3.79;100.00
15272;BME280;7737;51.578;7.268;2023-03-01T07:10:23;102446.03;;;-3.65;100.00
15272;BME280;7737;51.578;7.268;2023-03-01T07:12:49;102443.13;;;-3.49;100.00
15272;BME280;7737;51.578;7.268;2023-03-01T07:15:17;102438.69;;;-3.28;100.00
15272;BME280;7737;51.578;7.268;2023-03-01T07:17:44;102442.63;;;-3.14;100.00
15272;BME280;7737;51.578;7.268;2023-03-01T07:20:13;102438.34;;;-2.86;100.00
15272;BME280;7737;51.578;7.268;2023-03-01T07:22:40;102439.31;;;-2.83;100.00
15272;BME280;7737;51.578;7.268;2023-03-01T07:25:08;102432.97;;;-2.64;100.00
15272;BME280;7737;51.578;7.268;2023-03-01T07:27:35;102431.66;;;-2.52;100.00
15272;BME280;7737;51.578;7.268;2023-03-01T07:30:03;102432.63;;;-2.48;100.00
15272;BME280;7737;51.578;7.268;2023-03-01T07:32:31;102431.22;;;-2.37;100.00
15272;BME280;7737;51.578;7.268;2023-03-01T07:34:57;102438.00;;;-2.14;100.00
15272;BME280;7737;51.578;7.268;2023-03-01T07:37:24;102427.91;;;-2.03;100.00
15272;BME280;7737;51.578;7.268;2023-03-01T07:39:50;102428.00;;;-2.00;100.00
15272;BME280;7737;51.578;7.268;2023-03-01T07:42:17;102424.19;;;-1.81;100.00
15272;BME280;7737;51.578;7.268;2023-03-01T07:44:43;102425.59;;;-1.63;100.00
15272;BME280;7737;51.578;7.268;2023-03-01T07:47:10;102417.44;;;-1.42;100.00
15272;BME280;7737;51.578;7.268;2023-03-01T07:49:38;102412.75;;;-1.23;100.00
15272;BME280;7737;51.578;7.268;2023-03-01T07:52:04;102406.56;;;-1.26;100.00
15272;BME280;7737;51.578;7.268;2023-03-01T07:54:31;102406.13;;;-1.08;100.00
15272;BME280;7737;51.578;7.268;2023-03-01T07:56:57;102400.63;;;-0.85;100.00
15272;BME280;7737;51.578;7.268;2023-03-01T07:59:24;102409.34;;;-0.84;100.00
15272;BME280;7737;51.578;7.268;2023-03-01T08:01:54;102413.19;;;-0.69;100.00
15272;BME280;7737;51.578;7.268;2023-03-01T08:04:20;102403.97;;;-0.54;100.00
15272;BME280;7737;51.578;7.268;2023-03-01T08:06:48;102396.47;;;-0.39;100.00
15272;BME280;7737;51.578;7.268;2023-03-01T08:09:15;102396.59;;;-0.35;100.00
15272;BME280;7737;51.578;7.268;2023-03-01T08:11:41;102391.53;;;-0.27;100.00
15272;BME280;7737;51.578;7.268;2023-03-01T08:14:08;102394.25;;;-0.21;100.00
15272;BME280;7737;51.578;7.268;2023-03-01T08:16:35;102389.56;;;0.05;100.00
15272;BME280;7737;51.578;7.268;2023-03-01T08:19:04;102388.81;;;0.10;100.00
15272;BME280;7737;51.578;7.268;2023-03-01T08:21:30;102386.69;;;0.34;100.00
15272;BME280;7737;51.578;7.268;2023-03-01T08:23:58;102375.53;;;0.44;100.00
15272;BME280;7737;51.578;7.268;2023-03-01T08:26:25;102382.75;;;0.57;100.00
15272;BME280;7737;51.578;7.268;2023-03-01T08:28:51;102375.84;;;0.63;100.00
15272;BME280;7737;51.578;7.268;2023-03-01T08:31:20;102375.00;;;0.64;100.00
15272;BME280;7737;51.578;7.268;2023-03-01T08:33:49;102366.41;;;0.71;100.00
15272;BME280;7737;51.578;7.268;2023-03-01T08:36:20;102366.59;;;0.83;100.00
15272;BME280;7737;51.578;7.268;2023-03-01T08:38:47;102368.59;;;0.97;100.00
15272;BME280;7737;51.578;7.268;2023-03-01T08:41:15;102364.03;;;0.86;100.00
15272;BME280;7737;51.578;7.268;2023-03-01T08:43:42;102355.22;;;1.36;100.00
15272;BME280;7737;51.578;7.268;2023-03-01T08:46:08;102348.19;;;1.32;100.00
15272;BME280;7737;51.578;7.268;2023-03-01T08:48:35;102338.41;;;1.22;100.00
15272;BME280;7737;51.578;7.268;2023-03-01T08:51:08;102326.53;;;1.45;100.00
15272;BME280;7737;51.578;7.268;2023-03-01T08:53:35;102328.50;;;1.61;100.00
15272;BME280;7737;51.578;7.268;2023-03-01T08:56:02;102318.00;;;1.61;100.00
15272;BME280;7737;51.578;7.268;2023-03-01T08:58:30;102318.22;;;1.79;100.00
15272;BME280;7737;51.578;7.268;2023-03-01T09:00:57;102312.94;;;1.76;100.00
15272;BME280;7737;51.578;7.268;2023-03-01T09:03:24;102312.22;;;1.90;100.00
15272;BME280;7737;51.578;7.268;2023-03-01T09:05:51;102307.94;;;1.98;100.00
15272;BME280;7737;51.578;7.268;2023-03-01T09:08:19;102304.53;;;2.05;100.00
15272;BME280;7737;51.578;7.268;2023-03-01T09:10:46;102295.06;;;2.20;100.00
15272;BME280;7737;51.578;7.268;2023-03-01T09:13:12;102287.22;;;2.22;100.00
15272;BME280;7737;51.578;7.268;2023-03-01T09:15:41;102283.66;;;2.14;100.00
15272;BME280;7737;51.578;7.268;2023-03-01T09:18:07;102277.66;;;2.27;100.00
15272;BME280;7737;51.578;7.268;2023-03-01T09:20:34;102275.13;;;2.39;100.00
15272;BME280;7737;51.578;7.268;2023-03-01T09:23:01;102260.28;;;2.44;100.00
15272;BME280;7737;51.578;7.268;2023-03-01T09:25:27;102265.69;;;2.61;100.00
15272;BME280;7737;51.578;7.268;2023-03-01T09:27:54;102260.44;;;2.62;100.00
15272;BME280;7737;51.578;7.268;2023-03-01T09:30:21;102256.03;;;2.60;100.00
15272;BME280;7737;51.578;7.268;2023-03-01T09:32:49;102245.66;;;2.73;100.00
15272;BME280;7737;51.578;7.268;2023-03-01T09:35:15;102240.34;;;2.64;100.00
15272;BME280;7737;51.578;7.268;2023-03-01T09:37:43;102233.50;;;2.87;100.00
15272;BME280;7737;51.578;7.268;2023-03-01T09:40:12;102218.66;;;2.95;100.00
15272;BME280;7737;51.578;7.268;2023-03-01T09:42:47;102208.31;;;3.29;100.00
15272;BME280;7737;51.578;7.268;2023-03-01T09:45:21;102207.41;;;3.21;100.00
15272;BME280;7737;51.578;7.268;2023-03-01T09:47:52;102196.81;;;3.05;100.00
15272;BME280;7737;51.578;7.268;2023-03-01T09:50:20;102208.28;;;3.21;100.00
15272;BME280;7737;51.578;7.268;2023-03-01T09:53:00;102193.31;;;3.03;100.00
15272;BME280;7737;51.578;7.268;2023-03-01T09:55:31;102179.47;;;3.47;100.00
15272;BME280;7737;51.578;7.268;2023-03-01T09:58:06;102181.19;;;3.34;100.00
15272;BME280;7737;51.578;7.268;2023-03-01T10:00:43;102168.06;;;3.43;100.00
15272;BME280;7737;51.578;7.268;2023-03-01T10:03:16;102161.97;;;3.61;100.00
15272;BME280;7737;51.578;7.268;2023-03-01T10:05:50;102160.25;;;3.69;100.00
15272;BME280;7737;51.578;7.268;2023-03-01T10:08:28;102158.47;;;3.71;100.00
15272;BME280;7737;51.578;7.268;2023-03-01T10:10:56;102138.34;;;3.70;100.00
15272;BME280;7737;51.578;7.268;2023-03-01T10:13:26;102134.81;;;3.74;100.00
15272;BME280;7737;51.578;7.268;2023-03-01T10:15:55;102128.72;;;3.78;100.00
15272;BME280;7737;51.578;7.268;2023-03-01T10:18:26;102130.47;;;3.88;100.00
15272;BME280;7737;51.578;7.268;2023-03-01T10:20:56;102126.94;;;3.98;100.00
15272;BME280;7737;51.578;7.268;2023-03-01T10:23:24;102127.81;;;4.08;100.00
15272;BME280;7737;51.578;7.268;2023-03-01T10:29:03;102118.19;;;3.87;100.00
15272;BME280;7737;51.578;7.268;2023-03-01T10:31:39;102112.03;;;3.90;100.00
15272;BME280;7737;51.578;7.268;2023-03-01T10:34:12;102091.88;;;3.87;100.00
15272;BME280;7737;51.578;7.268;2023-03-01T10:36:39;102090.13;;;4.07;100.00
15272;BME280;7737;51.578;7.268;2023-03-01T10:39:13;102103.28;;;4.15;100.00
15272;BME280;7737;51.578;7.268;2023-03-01T10:41:52;102068.13;;;4.26;100.00
15272;BME280;7737;51.578;7.268;2023-03-01T10:44:36;102084.75;;;4.56;100.00
15272;BME280;7737;51.578;7.268;2023-03-01T10:47:03;102065.47;;;4.48;100.00
15272;BME280;7737;51.578;7.268;2023-03-01T10:49:31;102061.84;;;4.79;100.00
15272;BME280;7737;51.578;7.268;2023-03-01T10:52:11;102044.34;;;4.66;100.00
15272;BME280;7737;51.578;7.268;2023-03-01T10:54:52;102028.53;;;4.67;100.00
15272;BME280;7737;51.578;7.268;2023-03-01T10:57:36;102031.84;;;5.04;100.00
15272;BME280;7737;51.578;7.268;2023-03-01T11:00:19;102024.88;;;4.92;100.00
15272;BME280;7737;51.578;7.268;2023-03-01T11:03:01;102015.34;;;4.72;100.00
15272;BME280;7737;51.578;7.268;2023-03-01T11:05:30;102016.03;;;5.04;100.00
15272;BME280;7737;51.578;7.268;2023-03-01T11:07:59;102017.53;;;5.41;100.00
15272;BME280;7737;51.578;7.268;2023-03-01T11:10:28;102001.09;;;5.08;100.00
15272;BME280;7737;51.578;7.268;2023-03-01T11:13:06;101978.31;;;4.98;99.96
15272;BME280;7737;51.578;7.268;2023-03-01T11:15:33;101974.66;;;5.17;100.00
15272;BME280;7737;51.578;7.268;2023-03-01T11:18:00;101965.78;;;5.28;99.49
15272;BME280;7737;51.578;7.268;2023-03-01T11:20:32;101960.44;;;5.36;99.52
15272;BME280;7737;51.578;7.268;2023-03-01T11:23:04;101962.16;;;5.41;99.27
15272;BME280;7737;51.578;7.268;2023-03-01T11:25:36;101955.88;;;5.56;98.44
15272;BME280;7737;51.578;7.268;2023-03-01T11:28:05;101942.75;;;5.50;98.28
15272;BME280;7737;51.578;7.268;2023-03-01T11:30:36;101938.16;;;5.72;96.74
15272;BME280;7737;51.578;7.268;2023-03-01T11:33:13;101949.44;;;5.84;96.97
15272;BME280;7737;51.578;7.268;2023-03-01T11:35:47;101933.69;;;5.78;94.79
15272;BME280;7737;51.578;7.268;2023-03-01T11:38:20;101938.16;;;5.72;93.19
15272;BME280;7737;51.578;7.268;2023-03-01T11:40:50;101934.31;;;6.03;94.49
15272;BME280;7737;51.578;7.268;2023-03-01T11:43:23;101944.88;;;6.03;94.71
15272;BME280;7737;51.578;7.268;2023-03-01T11:46:29;101927.97;;;6.18;92.94
15272;BME280;7737;51.578;7.268;2023-03-01T11:49:07;101929.91;;;6.05;92.24
15272;BME280;7737;51.578;7.268;2023-03-01T11:51:49;101912.41;;;5.93;91.54
15272;BME280;7737;51.578;7.268;2023-03-01T11:54:27;101904.88;;;5.59;89.30
15272;BME280;7737;51.578;7.268;2023-03-01T11:56:57;101922.56;;;6.30;91.60
15272;BME280;7737;51.578;7.268;2023-03-01T11:59:45;101914.69;;;6.25;90.97
15272;BME280;7737;51.578;7.268;2023-03-01T12:02:35;101926.16;;;6.23;90.28
15272;BME280;7737;51.578;7.268;2023-03-01T12:05:23;101919.69;;;6.46;89.53
15272;BME280;7737;51.578;7.268;2023-03-01T12:07:57;101899.56;;;6.38;88.89
15272;BME280;7737;51.578;7.268;2023-03-01T12:10:34;101901.03;;;6.57;88.44
15272;BME280;7737;51.578;7.268;2023-03-01T12:13:23;101906.88;;;6.16;87.49
15272;BME280;7737;51.578;7.268;2023-03-01T12:16:05;101913.91;;;6.83;89.91
15272;BME280;7737;51.578;7.268;2023-03-01T12:19:06;101886.78;;;6.68;88.28
15272;BME280;7737;51.578;7.268;2023-03-01T12:21:51;101887.81;;;6.58;88.13
15272;BME280;7737;51.578;7.268;2023-03-01T12:24:31;101866.13;;;6.95;87.12
15272;BME280;7737;51.578;7.268;2023-03-01T12:27:17;101856.00;;;6.66;85.50
15272;BME280;7737;51.578;7.268;2023-03-01T12:29:52;101843.00;;;6.54;85.02
15272;BME280;7737;51.578;7.268;2023-03-01T12:32:33;101826.22;;;6.56;84.48
15272;BME280;7737;51.578;7.268;2023-03-01T12:35:20;101831.22;;;6.73;84.69
15272;BME280;7737;51.578;7.268;2023-03-01T12:37:56;101821.47;;;6.77;83.88
15272;BME280;7737;51.578;7.268;2023-03-01T12:40:50;101823.53;;;7.10;83.97
15272;BME280;7737;51.578;7.268;2023-03-01T12:43:34;101808.94;;;6.89;82.12
15272;BME280;7737;51.578;7.268;2023-03-01T12:46:27;101808.22;;;6.80;82.24
15272;BME280;7737;51.578;7.268;2023-03-01T12:49:06;101809.50;;;7.08;81.36
15272;BME280;7737;51.578;7.268;2023-03-01T12:51:35;101802.47;;;7.07;81.76
15272;BME280;7737;51.578;7.268;2023-03-01T12:54:07;101828.59;;;7.23;84.76
15272;BME280;7737;51.578;7.268;2023-03-01T12:56:39;101833.91;;;7.22;84.19
15272;BME280;7737;51.578;7.268;2023-03-01T12:59:13;101846.59;;;7.02;84.34
15272;BME280;7737;51.578;7.268;2023-03-01T13:01:46;101835.31;;;6.92;83.94
15272;BME280;7737;51.578;7.268;2023-03-01T13:04:31;101819.22;;;7.06;83.73
15272;BME280;7737;51.578;7.268;2023-03-01T13:07:11;101821.03;;;7.04;83.96
15272;BME280;7737;51.578;7.268;2023-03-01T13:09:48;101811.34;;;7.03;81.96
15272;BME280;7737;51.578;7.268;2023-03-01T13:12:53;101801.84;;;7.40;83.10